Time;durP1;ratioP1;P1;durP2;ratioP2;P2;SDS_P1;SDS_P2;PMS_P1;PMS_P2;Temp;Humidity;BMP_temperature;BMP_pressure;BME280_temperature;BME280_humidity;BME280_pressure;Samples;Min_cycle;Max_cycle;Signal;HPM_P1;HPM_P2
2020/12/28 00:01:39;;;;;;;1.60;1.60;;;;;;;3.60;95.35;97160.53;4390886;32;20655;-76
2020/12/28 00:04:04;;;;;;;1.70;1.70;;;;;;;3.60;95.21;97156.03;4357748;32;20541;-74
2020/12/28 00:06:30;;;;;;;1.60;1.60;;;;;;;3.47;95.29;97141.38;4389090;32;20085;-73
2020/12/28 00:08:55;;;;;;;1.60;1.60;;;;;;;3.55;95.79;97162.09;4364757;32;20069;-75
2020/12/28 00:11:21;;;;;;;1.70;1.70;;;;;;;3.54;96.17;97162.31;4378223;32;20086;-75
2020/12/28 00:13:46;;;;;;;1.60;1.60;;;;;;;2.84;95.95;97043.31;4363819;32;20081;-75
2020/12/28 00:16:12;;;;;;;2.15;2.05;;;;;;;3.43;96.44;97142.91;4343377;32;20432;-75
2020/12/28 00:18:39;;;;;;;1.60;1.60;;;;;;;3.41;96.20;97133.66;4373573;32;20693;-75
2020/12/28 00:21:04;;;;;;;1.60;1.60;;;;;;;3.49;96.56;97141.13;4379323;32;20116;-74
2020/12/28 00:23:30;;;;;;;1.60;1.60;;;;;;;3.48;96.65;97158.81;4388365;32;20089;-74
2020/12/28 00:25:55;;;;;;;1.65;1.65;;;;;;;3.48;96.83;97152.75;4393525;32;20150;-74
2020/12/28 00:28:20;;;;;;;1.60;1.60;;;;;;;3.36;97.50;97129.94;4365311;32;20084;-73
2020/12/28 00:30:46;;;;;;;1.60;1.60;;;;;;;3.27;97.44;97115.56;4367222;32;20766;-73
2020/12/28 00:33:11;;;;;;;1.52;1.52;;;;;;;3.49;97.52;97149.84;4379532;32;20073;-75
2020/12/28 00:35:37;;;;;;;1.60;1.60;;;;;;;3.51;97.40;97152.25;4383986;32;20128;-74
2020/12/28 00:38:02;;;;;;;1.70;1.70;;;;;;;3.51;97.78;97152.25;4379127;32;20596;-73
2020/12/28 00:40:27;;;;;;;1.70;1.70;;;;;;;3.51;97.41;97142.47;4357350;32;20062;-74
2020/12/28 00:42:53;;;;;;;1.50;1.50;;;;;;;3.38;97.85;97125.19;4379334;32;20639;-74
2020/12/28 00:45:18;;;;;;;1.50;1.50;;;;;;;3.50;96.17;97145.34;4368625;32;20069;-74
2020/12/28 00:47:44;;;;;;;1.60;1.60;;;;;;;3.49;96.29;97149.06;4379638;32;20155;-75
2020/12/28 00:50:09;;;;;;;1.60;1.60;;;;;;;3.41;96.30;97129.16;4373146;32;20084;-74
2020/12/28 00:52:34;;;;;;;2.12;2.03;;;;;;;3.48;96.39;97153.53;4355288;32;20283;-74
2020/12/28 00:55:00;;;;;;;1.70;1.70;;;;;;;3.47;96.29;97145.88;4374007;32;20662;-74
2020/12/28 00:57:25;;;;;;;1.67;1.67;;;;;;;3.33;96.75;97140.19;4371047;32;20083;-74
2020/12/28 00:59:51;;;;;;;1.52;1.52;;;;;;;3.46;97.77;97149.56;4369657;32;20058;-75
2020/12/28 01:02:16;;;;;;;1.60;1.60;;;;;;;3.39;97.55;97147.91;4352331;32;20596;-76
2020/12/28 01:04:42;;;;;;;1.60;1.60;;;;;;;3.35;97.52;97148.66;4349741;32;20176;-75
2020/12/28 01:07:07;;;;;;;1.60;1.60;;;;;;;3.33;97.03;97156.84;4378175;32;20086;-74
2020/12/28 01:09:32;;;;;;;1.50;1.50;;;;;;;3.33;97.70;97156.84;4351934;32;20093;-75
2020/12/28 01:11:58;;;;;;;1.80;1.80;;;;;;;3.34;97.54;97147.06;4371232;32;20077;-75
2020/12/28 01:14:23;;;;;;;1.80;1.80;;;;;;;3.34;98.31;97150.50;4366118;32;20525;-75
2020/12/28 01:16:49;;;;;;;1.70;1.70;;;;;;;3.24;97.56;97129.25;4371597;32;20058;-75
2020/12/28 01:19:14;;;;;;;1.60;1.60;;;;;;;3.29;98.34;97139.09;4354485;32;20100;-74
2020/12/28 01:21:40;;;;;;;1.60;1.60;;;;;;;3.20;98.32;97136.09;4369494;32;20070;-74
2020/12/28 01:24:05;;;;;;;1.70;1.70;;;;;;;3.29;98.60;97166.28;4368770;32;20074;-74
2020/12/28 01:26:30;;;;;;;1.70;1.70;;;;;;;3.31;98.94;97152.84;4372504;32;20952;-73
2020/12/28 01:28:56;;;;;;;2.05;1.95;;;;;;;3.28;99.25;97159.44;4366090;32;20815;-73
2020/12/28 01:31:21;;;;;;;1.52;1.52;;;;;;;3.19;99.11;97142.41;4381253;32;20062;-73
2020/12/28 01:33:47;;;;;;;1.50;1.50;;;;;;;3.25;99.79;97159.91;4387271;32;20470;-74
2020/12/28 01:36:15;;;;;;;1.70;1.70;;;;;;;3.26;99.93;97160.69;4380453;32;20078;-76
2020/12/28 01:38:41;;;;;;;1.50;1.50;;;;;;;3.25;100.00;97159.91;4369540;32;20434;-74
2020/12/28 01:41:06;;;;;;;1.80;1.80;;;;;;;3.17;100.00;97153.25;4378829;32;20089;-73
2020/12/28 01:43:31;;;;;;;1.60;1.60;;;;;;;3.12;100.00;97147.09;4368137;32;20469;-73
2020/12/28 01:46:00;;;;;;;1.55;1.55;;;;;;;3.15;99.98;97157.16;4370219;32;20389;-73
2020/12/28 01:48:27;;;;;;;1.70;1.70;;;;;;;2.91;100.00;97106.47;4368195;32;20581;-74
2020/12/28 01:50:52;;;;;;;1.60;1.60;;;;;;;2.92;100.00;97119.41;4383587;32;20667;-73
2020/12/28 01:53:19;;;;;;;1.60;1.60;;;;;;;3.11;100.00;97156.06;4373023;32;20115;-73
2020/12/28 01:55:45;;;;;;;1.60;1.60;;;;;;;3.27;100.00;97163.09;4380098;32;20623;-74
2020/12/28 01:58:10;;;;;;;1.60;1.60;;;;;;;3.25;100.00;97167.84;4369795;32;20583;-74
2020/12/28 02:00:36;;;;;;;1.60;1.60;;;;;;;3.28;100.00;97174.47;4388123;32;20083;-73
2020/12/28 02:03:01;;;;;;;1.60;1.60;;;;;;;3.28;100.00;97175.28;4362948;32;20822;-75
2020/12/28 02:05:29;;;;;;;2.28;2.17;;;;;;;3.29;100.00;97173.41;4367192;32;20066;-74
2020/12/28 02:07:55;;;;;;;1.70;1.70;;;;;;;3.20;100.00;97162.50;4348326;32;20069;-74
2020/12/28 02:10:20;;;;;;;1.70;1.70;;;;;;;3.28;100.00;97175.28;4376971;32;20141;-73
2020/12/28 02:12:46;;;;;;;1.70;1.70;;;;;;;3.01;100.00;97130.34;4378853;32;20073;-73
2020/12/28 02:15:11;;;;;;;1.58;1.58;;;;;;;3.29;100.00;97166.28;4381047;32;20658;-74
2020/12/28 02:17:37;;;;;;;1.70;1.70;;;;;;;3.19;100.00;97152.97;4367194;32;20707;-74
2020/12/28 02:20:02;;;;;;;1.70;1.70;;;;;;;3.05;100.00;97139.34;4394423;32;20089;-73
2020/12/28 02:22:28;;;;;;;1.70;1.70;;;;;;;3.01;100.00;97139.06;4377722;32;20509;-73
2020/12/28 02:24:53;;;;;;;1.60;1.60;;;;;;;3.23;100.00;97162.00;4392061;32;20666;-73
2020/12/28 02:27:18;;;;;;;2.17;1.90;;;;;;;3.16;100.00;97150.84;4365218;32;20501;-74
2020/12/28 02:29:44;;;;;;;1.50;1.50;;;;;;;3.26;100.00;97172.09;4393832;32;20089;-73
2020/12/28 02:32:09;;;;;;;1.70;1.70;;;;;;;3.25;100.00;97172.31;4363178;32;20086;-75
2020/12/28 02:34:35;;;;;;;1.70;1.70;;;;;;;2.48;100.00;97058.75;4368575;32;20058;-74
2020/12/28 02:37:00;;;;;;;1.80;1.80;;;;;;;3.24;100.00;97173.37;4375655;32;20497;-74
2020/12/28 02:39:25;;;;;;;1.70;1.70;;;;;;;3.27;100.00;97176.31;4367990;32;20078;-74
2020/12/28 02:41:51;;;;;;;2.17;2.08;;;;;;;3.02;100.00;97145.16;4368475;32;20153;-74
2020/12/28 02:44:16;;;;;;;1.62;1.62;;;;;;;3.26;100.00;97190.56;4367951;32;20604;-73
2020/12/28 02:46:41;;;;;;;1.75;1.75;;;;;;;3.27;100.00;97194.00;4371874;32;20062;-73
2020/12/28 02:49:07;;;;;;;1.77;1.77;;;;;;;3.25;100.00;97186.31;4346220;32;20757;-73
2020/12/28 02:51:32;;;;;;;1.65;1.65;;;;;;;3.26;100.00;97182.66;4366503;32;20565;-73
2020/12/28 02:53:58;;;;;;;1.75;1.75;;;;;;;3.26;100.00;97187.94;4382061;32;20066;-74
2020/12/28 02:56:23;;;;;;;1.70;1.70;;;;;;;3.27;100.00;97186.88;4372562;32;20149;-73
2020/12/28 02:58:48;;;;;;;1.60;1.60;;;;;;;3.27;100.00;97178.94;4366061;32;20078;-73
2020/12/28 03:01:14;;;;;;;1.60;1.60;;;;;;;3.27;100.00;97178.94;4367353;32;20089;-73
2020/12/28 03:03:39;;;;;;;1.70;1.70;;;;;;;3.01;100.00;97146.97;4375207;32;20070;-74
2020/12/28 03:06:05;;;;;;;1.70;1.70;;;;;;;3.28;100.00;97187.69;4370757;32;20094;-74
2020/12/28 03:08:30;;;;;;;1.67;1.67;;;;;;;3.30;100.00;97182.94;4360615;32;20162;-74
2020/12/28 03:10:55;;;;;;;1.60;1.60;;;;;;;3.29;100.00;97176.06;4377983;32;20082;-74
2020/12/28 03:13:21;;;;;;;1.70;1.70;;;;;;;3.23;100.00;97156.72;4367934;32;20137;-73
2020/12/28 03:15:46;;;;;;;1.60;1.60;;;;;;;3.31;100.00;97166.84;4347927;32;20595;-74
2020/12/28 03:18:12;;;;;;;2.10;2.03;;;;;;;3.32;100.00;97154.44;4364917;32;20077;-75
2020/12/28 03:20:37;;;;;;;1.75;1.75;;;;;;;3.30;100.00;97161.81;4365957;32;20078;-73
2020/12/28 03:23:02;;;;;;;1.80;1.80;;;;;;;3.05;100.00;97136.72;4375642;32;20074;-73
2020/12/28 03:25:28;;;;;;;1.60;1.60;;;;;;;3.23;100.00;97167.28;4353489;32;20081;-74
2020/12/28 03:27:53;;;;;;;1.60;1.60;;;;;;;3.24;100.00;97178.66;4400616;32;20525;-73
2020/12/28 03:30:19;;;;;;;1.60;1.60;;;;;;;3.25;100.00;97181.03;4381405;32;20086;-74
2020/12/28 03:32:44;;;;;;;1.75;1.75;;;;;;;3.26;100.00;97182.66;4386217;32;20159;-73
2020/12/28 03:35:10;;;;;;;2.00;1.90;;;;;;;3.26;100.00;97190.56;4353215;32;20070;-73
2020/12/28 03:37:35;;;;;;;1.70;1.70;;;;;;;3.26;100.00;97195.84;4359920;32;20070;-73
2020/12/28 03:40:00;;;;;;;1.70;1.70;;;;;;;3.25;100.00;97196.09;4354741;32;20065;-74
2020/12/28 03:42:26;;;;;;;1.60;1.60;;;;;;;3.01;100.00;97160.16;4387633;32;20517;-73
2020/12/28 03:44:51;;;;;;;1.70;1.70;;;;;;;3.20;100.00;97199.47;4390918;32;20135;-73
2020/12/28 03:47:16;;;;;;;1.70;1.70;;;;;;;3.18;100.00;97196.28;4389762;32;20123;-74
2020/12/28 03:49:42;;;;;;;1.90;1.90;;;;;;;3.12;100.00;97190.16;4354252;32;20101;-73
2020/12/28 03:52:07;;;;;;;1.70;1.70;;;;;;;3.24;100.00;97202.41;4391356;32;20115;-74
2020/12/28 03:54:33;;;;;;;1.70;1.70;;;;;;;3.24;100.00;97210.34;4357753;32;20077;-73
2020/12/28 03:56:58;;;;;;;1.77;1.77;;;;;;;3.24;100.00;97200.56;4380961;32;20426;-73
2020/12/28 03:59:23;;;;;;;1.60;1.60;;;;;;;3.11;100.00;97203.59;4381889;32;20589;-74
2020/12/28 04:01:49;;;;;;;1.50;1.50;;;;;;;3.17;100.00;97205.25;4357002;32;20156;-74
2020/12/28 04:04:14;;;;;;;1.60;1.60;;;;;;;3.26;100.00;97219.63;4354573;32;20078;-74
2020/12/28 04:06:40;;;;;;;1.70;1.70;;;;;;;3.18;100.00;97204.22;4350522;32;20197;-74
2020/12/28 04:09:05;;;;;;;1.83;1.80;;;;;;;3.25;100.00;97204.81;4355781;32;20623;-73
2020/12/28 04:11:30;;;;;;;1.60;1.60;;;;;;;3.26;100.00;97209.06;4352406;32;20117;-73
2020/12/28 04:13:56;;;;;;;1.50;1.50;;;;;;;3.26;100.00;97213.53;4399211;32;20327;-74
2020/12/28 04:16:21;;;;;;;1.60;1.60;;;;;;;3.07;100.00;97179.53;4340493;32;20124;-75
2020/12/28 04:18:47;;;;;;;1.70;1.70;;;;;;;3.12;100.00;97190.16;4379576;32;20093;-74
2020/12/28 04:21:12;;;;;;;1.70;1.70;;;;;;;3.25;100.00;97204.81;4389980;32;20081;-74
2020/12/28 04:23:37;;;;;;;1.70;1.70;;;;;;;3.25;100.00;97204.81;4392336;32;20098;-73
2020/12/28 04:26:06;;;;;;;2.22;2.12;;;;;;;3.06;100.00;97177.12;4374686;32;20188;-74
2020/12/28 04:28:31;;;;;;;1.70;1.70;;;;;;;3.20;100.00;97189.69;4370780;32;20112;-73
2020/12/28 04:30:57;;;;;;;1.60;1.60;;;;;;;3.10;100.00;97189.56;4324422;32;20608;-73
2020/12/28 04:33:23;;;;;;;1.60;1.60;;;;;;;3.20;100.00;97186.25;4349714;32;20082;-74
2020/12/28 04:35:48;;;;;;;1.65;1.65;;;;;;;3.19;100.00;97184.66;4374273;32;20184;-73
2020/12/28 04:38:13;;;;;;;1.70;1.70;;;;;;;3.18;100.00;97191.78;4327268;32;20184;-74
2020/12/28 04:40:39;;;;;;;1.60;1.60;;;;;;;2.95;100.00;97161.16;4360100;32;20312;-73
2020/12/28 04:43:09;;;;;;;1.80;1.80;;;;;;;3.11;100.00;97187.75;4380791;32;20077;-73
2020/12/28 04:45:35;;;;;;;1.70;1.70;;;;;;;3.10;100.00;97194.06;4371407;32;20136;-74
2020/12/28 04:48:00;;;;;;;1.70;1.70;;;;;;;3.11;100.00;97201.75;4365790;32;20098;-73
2020/12/28 04:50:26;;;;;;;1.60;1.60;;;;;;;2.93;100.00;97163.25;4369714;32;20074;-73
2020/12/28 04:52:51;;;;;;;1.67;1.67;;;;;;;3.08;100.00;97182.97;4324500;32;20074;-72
2020/12/28 04:55:17;;;;;;;1.60;1.60;;;;;;;3.08;100.00;97175.81;4377170;32;20074;-73
2020/12/28 04:57:42;;;;;;;1.52;1.52;;;;;;;3.16;100.00;97179.91;4349093;32;20115;-73
2020/12/28 05:00:08;;;;;;;1.70;1.70;;;;;;;3.13;100.00;97183.81;4327456;32;20077;-74
2020/12/28 05:02:33;;;;;;;2.10;2.00;;;;;;;3.03;100.00;97174.97;4373211;32;20085;-74
2020/12/28 05:05:08;;;;;;;1.67;1.67;;;;;;;2.90;100.00;97166.37;4359218;32;20242;-74
2020/12/28 05:07:33;;;;;;;2.08;1.98;;;;;;;2.54;100.00;97122.94;4365029;32;20094;-73
2020/12/28 05:10:00;;;;;;;1.83;1.83;;;;;;;2.56;100.00;97129.53;4354150;32;20080;-74
2020/12/28 05:12:25;;;;;;;1.70;1.70;;;;;;;2.88;100.00;97197.53;4327434;32;20082;-73
2020/12/28 05:14:51;;;;;;;1.50;1.50;;;;;;;2.63;100.00;97156.53;4376402;32;20983;-74
2020/12/28 05:17:16;;;;;;;1.83;1.80;;;;;;;2.86;100.00;97182.94;4377044;32;20081;-74
2020/12/28 05:19:41;;;;;;;1.60;1.60;;;;;;;2.61;100.00;97163.13;4331696;32;20076;-73
2020/12/28 05:22:07;;;;;;;1.50;1.50;;;;;;;2.65;100.00;97171.34;4331515;32;20551;-73
2020/12/28 05:24:32;;;;;;;1.60;1.60;;;;;;;2.76;100.00;97196.81;4373715;32;20428;-74
2020/12/28 05:26:58;;;;;;;1.60;1.60;;;;;;;2.73;100.00;97190.19;4348045;32;20136;-74
2020/12/28 05:29:25;;;;;;;1.70;1.70;;;;;;;2.69;100.00;97202.28;4371450;32;20074;-74
2020/12/28 05:31:51;;;;;;;1.60;1.60;;;;;;;2.59;100.00;97184.47;4354215;32;20593;-75
2020/12/28 05:34:17;;;;;;;1.60;1.60;;;;;;;2.30;100.00;97154.00;4375671;32;20092;-73
2020/12/28 05:36:50;;;;;;;1.60;1.60;;;;;;;2.59;100.00;97202.94;4367473;32;20059;-74
2020/12/28 05:39:16;;;;;;;;;;;;;;;2.59;100.00;97195.03;4370141;32;20101;-75
2020/12/28 05:41:52;;;;;;;1.52;1.52;;;;;;;2.59;100.00;97205.56;4360354;32;20393;-74
2020/12/28 05:44:17;;;;;;;1.60;1.60;;;;;;;2.61;100.00;97200.06;4375471;32;20220;-74
2020/12/28 05:46:43;;;;;;;1.65;1.65;;;;;;;2.62;100.00;97199.00;4343363;32;20055;-74
2020/12/28 05:49:08;;;;;;;1.73;1.73;;;;;;;2.61;100.00;97203.47;4366277;32;20458;-73
2020/12/28 05:51:35;;;;;;;1.70;1.70;;;;;;;2.59;100.00;97205.56;4344622;32;20070;-74
2020/12/28 05:54:06;;;;;;;1.60;1.60;;;;;;;2.54;100.00;97202.84;4341904;32;20074;-74
2020/12/28 05:56:32;;;;;;;1.75;1.75;;;;;;;1.65;100.00;97095.56;4371924;32;20077;-74
2020/12/28 05:58:57;;;;;;;1.70;1.70;;;;;;;2.40;100.00;97206.88;4346681;32;20078;-73
2020/12/28 06:01:22;;;;;;;1.70;1.70;;;;;;;2.33;100.00;97207.03;4371490;32;20703;-74
2020/12/28 06:03:48;;;;;;;1.80;1.80;;;;;;;2.19;100.00;97185.47;4348452;32;20086;-74
2020/12/28 06:06:13;;;;;;;1.80;1.80;;;;;;;2.26;100.00;97206.41;4368453;32;20132;-75
2020/12/28 06:08:42;;;;;;;2.17;2.08;;;;;;;2.25;100.00;97204.81;4382323;32;20264;-75
2020/12/28 06:11:07;;;;;;;1.80;1.80;;;;;;;2.27;100.00;97204.56;4359569;32;20092;-76
2020/12/28 06:13:32;;;;;;;1.60;1.60;;;;;;;2.24;100.00;97198.75;4353060;32;20070;-76
2020/12/28 06:16:02;;;;;;;1.65;1.65;;;;;;;2.30;100.00;97209.38;4338629;32;20090;-75
2020/12/28 06:18:27;;;;;;;1.70;1.70;;;;;;;2.29;100.00;97211.19;4380387;32;21028;-75
2020/12/28 06:20:53;;;;;;;1.60;1.60;;;;;;;1.85;100.00;97153.84;4371350;32;20082;-75
2020/12/28 06:23:28;;;;;;;1.50;1.50;;;;;;;2.20;100.00;97216.06;4354823;32;20195;-74
2020/12/28 06:25:54;;;;;;;1.60;1.60;;;;;;;2.13;100.00;97220.69;4378488;32;20085;-76
2020/12/28 06:28:24;;;;;;;1.62;1.62;;;;;;;2.03;100.00;97217.91;4363009;32;20077;-74
2020/12/28 06:30:49;;;;;;;2.15;2.05;;;;;;;1.93;100.00;97212.47;4340678;32;20204;-75
2020/12/28 06:33:15;;;;;;;1.70;1.70;;;;;;;1.60;100.00;97185.81;4348017;32;20231;-74
2020/12/28 06:35:41;;;;;;;1.50;1.50;;;;;;;1.69;100.00;97218.66;4387116;32;20564;-74
2020/12/28 06:38:06;;;;;;;1.73;1.73;;;;;;;1.62;100.00;97217.19;4377860;32;20061;-75
2020/12/28 06:40:38;;;;;;;1.65;1.65;;;;;;;1.39;100.00;97197.81;4343087;32;20080;-75
2020/12/28 06:43:10;;;;;;;2.15;2.05;;;;;;;1.50;100.00;97225.97;4358289;32;20076;-74
2020/12/28 06:45:40;;;;;;;1.50;1.50;;;;;;;1.21;100.00;97188.28;4373177;32;20065;-76
2020/12/28 06:48:24;;;;;;;1.70;1.70;;;;;;;1.53;100.00;97229.16;4341689;32;20085;-75
2020/12/28 06:50:51;;;;;;;1.58;1.58;;;;;;;1.46;100.00;97211.66;4367589;32;20086;-74
2020/12/28 06:53:23;;;;;;;1.60;1.60;;;;;;;1.48;100.00;97225.41;4345490;32;20096;-74
2020/12/28 06:55:49;;;;;;;1.55;1.55;;;;;;;1.44;100.00;97226.09;4380950;32;20078;-74
2020/12/28 06:58:14;;;;;;;1.60;1.60;;;;;;;1.50;100.00;97243.56;4341358;32;21688;-73
2020/12/28 07:00:39;;;;;;;1.60;1.60;;;;;;;1.48;100.00;97237.75;4368398;32;20075;-74
2020/12/28 07:03:13;;;;;;;1.70;1.70;;;;;;;1.47;100.00;97236.16;4340977;32;20082;-73
2020/12/28 07:05:39;;;;;;;1.67;1.67;;;;;;;1.46;100.00;97234.56;4361805;32;20084;-74
2020/12/28 07:08:04;;;;;;;2.00;1.90;;;;;;;-0.17;100.00;96981.22;4348372;32;20066;-72
2020/12/28 07:10:29;;;;;;;1.67;1.67;;;;;;;1.52;100.00;97243.34;4369897;32;20773;-72
2020/12/28 07:13:03;;;;;;;1.60;1.60;;;;;;;1.26;100.00;97198.91;4362663;32;20202;-72
2020/12/28 07:15:28;;;;;;;1.70;1.70;;;;;;;1.47;100.00;97229.06;4380213;32;20084;-73
2020/12/28 07:17:54;;;;;;;1.77;1.77;;;;;;;1.65;100.00;97248.34;4338095;32;20071;-73
2020/12/28 07:20:19;;;;;;;1.90;1.80;;;;;;;1.71;100.00;97254.50;4344161;32;20176;-75
2020/12/28 07:22:44;;;;;;;1.75;1.73;;;;;;;1.46;100.00;97203.75;4377618;32;20678;-73
2020/12/28 07:25:12;;;;;;;1.70;1.70;;;;;;;1.78;100.00;97255.19;4356577;32;20590;-75
2020/12/28 07:27:40;;;;;;;1.60;1.60;;;;;;;1.55;100.00;97232.34;4394446;32;20602;-74
2020/12/28 07:30:10;;;;;;;1.60;1.60;;;;;;;1.83;100.00;97261.31;4338786;32;20074;-76
2020/12/28 07:32:36;;;;;;;1.70;1.70;;;;;;;1.39;100.00;97197.03;4367050;32;20078;-75
2020/12/28 07:35:02;;;;;;;1.70;1.70;;;;;;;1.81;100.00;97259.94;4352229;32;20073;-75
2020/12/28 07:37:28;;;;;;;1.75;1.75;;;;;;;1.78;100.00;97263.88;4367258;32;20209;-77
2020/12/28 07:39:54;;;;;;;1.60;1.60;;;;;;;1.41;100.00;97198.38;4373863;32;21077;-76
2020/12/28 07:42:20;;;;;;;1.50;1.50;;;;;;;1.77;100.00;97272.78;4343934;32;20078;-76
2020/12/28 07:44:59;;;;;;;1.50;1.50;;;;;;;1.68;100.00;97264.47;4378223;32;20274;-74
2020/12/28 07:47:35;;;;;;;1.50;1.50;;;;;;;1.03;100.00;97170.81;4344623;32;20469;-73
2020/12/28 07:50:01;;;;;;;1.60;1.60;;;;;;;1.52;100.00;97249.44;4360538;32;20094;-73
2020/12/28 07:52:26;;;;;;;1.70;1.70;;;;;;;1.45;100.00;97249.56;4363306;32;20084;-74
2020/12/28 07:55:13;;;;;;;1.60;1.60;;;;;;;1.15;100.00;97212.09;4338102;32;20097;-74
2020/12/28 07:57:47;;;;;;;1.50;1.50;;;;;;;1.34;100.00;97260.13;4342164;32;20750;-75
2020/12/28 08:00:16;;;;;;;1.70;1.70;;;;;;;1.21;100.00;97242.75;4378636;32;20065;-75
2020/12/28 08:03:04;;;;;;;1.60;1.60;;;;;;;1.18;100.00;97264.28;4368660;32;20177;-74
2020/12/28 08:05:29;;;;;;;1.50;1.50;;;;;;;1.17;100.00;97265.31;4368395;32;20275;-75
2020/12/28 08:07:55;;;;;;;1.40;1.40;;;;;;;1.13;100.00;97255.25;4339834;32;20093;-73
2020/12/28 08:10:20;;;;;;;1.50;1.50;;;;;;;1.12;100.00;97263.38;4366496;32;20093;-74
2020/12/28 08:12:53;;;;;;;1.60;1.60;;;;;;;1.09;100.00;97267.28;4336830;32;20077;-76
2020/12/28 08:15:26;;;;;;;1.60;1.60;;;;;;;1.07;100.00;97263.25;4380020;32;20547;-75
2020/12/28 08:17:51;;;;;;;1.50;1.50;;;;;;;1.02;100.00;97266.59;4353848;32;20671;-73
2020/12/28 08:20:17;;;;;;;1.55;1.55;;;;;;;0.94;100.00;97254.59;4346739;32;20078;-73
2020/12/28 08:22:42;;;;;;;1.50;1.50;;;;;;;0.94;100.00;97253.81;4354753;32;20066;-73
2020/12/28 08:25:09;;;;;;;1.60;1.60;;;;;;;0.15;100.00;97147.16;4391453;32;21509;-74
2020/12/28 08:27:35;;;;;;;1.70;1.70;;;;;;;0.66;100.00;97226.37;4376290;32;20098;-72
2020/12/28 08:30:01;;;;;;;1.67;1.67;;;;;;;0.96;100.00;97280.69;4376508;32;20113;-73
2020/12/28 08:32:30;;;;;;;2.00;1.90;;;;;;;1.02;100.00;97286.84;4337653;32;20580;-72
2020/12/28 08:34:59;;;;;;;1.50;1.50;;;;;;;1.07;100.00;97298.31;4373730;32;20081;-72
2020/12/28 08:37:25;;;;;;;1.40;1.40;;;;;;;1.09;100.00;97293.59;4379947;32;20070;-72
2020/12/28 08:39:50;;;;;;;2.03;1.92;;;;;;;1.18;100.00;97304.56;4351414;32;20617;-72
2020/12/28 08:42:31;;;;;;;1.50;1.50;;;;;;;1.30;100.00;97307.19;4342815;32;20066;-73
2020/12/28 08:44:57;;;;;;;1.50;1.50;;;;;;;1.07;100.00;97255.38;4368605;32;20088;-75
2020/12/28 08:47:23;;;;;;;1.60;1.60;;;;;;;1.52;100.00;97307.38;4381486;32;20069;-75
2020/12/28 08:49:49;;;;;;;1.50;1.50;;;;;;;1.64;100.00;97297.59;4376926;32;20074;-74
2020/12/28 08:52:18;;;;;;;1.50;1.50;;;;;;;1.65;100.00;97286.00;4392704;32;20564;-74
2020/12/28 08:54:52;;;;;;;1.60;1.60;;;;;;;1.78;100.00;97295.50;4368487;32;20547;-73
2020/12/28 08:57:23;;;;;;;1.70;1.70;;;;;;;1.83;100.00;97297.44;4345303;32;20616;-74
2020/12/28 08:59:48;;;;;;;1.37;1.37;;;;;;;1.63;99.84;97251.19;4343085;32;21393;-76
2020/12/28 09:02:18;;;;;;;1.48;1.48;;;;;;;1.66;100.00;97271.81;4381963;32;20120;-74
2020/12/28 09:04:43;;;;;;;1.60;1.60;;;;;;;2.04;99.05;97306.50;4341911;32;20069;-72
2020/12/28 09:07:09;;;;;;;1.70;1.70;;;;;;;2.16;98.36;97311.72;4357844;32;20172;-73
2020/12/28 09:09:34;;;;;;;1.60;1.60;;;;;;;2.25;97.26;97315.56;4342790;32;20142;-73
2020/12/28 09:12:00;;;;;;;1.50;1.50;;;;;;;1.72;96.40;97204.19;4346258;32;20065;-76
2020/12/28 09:14:25;;;;;;;1.60;1.60;;;;;;;2.33;96.13;97286.16;4386175;32;20114;-75
2020/12/28 09:16:51;;;;;;;1.70;1.70;;;;;;;2.52;95.64;97299.09;4372216;32;20583;-76
2020/12/28 09:19:16;;;;;;;2.20;2.10;;;;;;;2.57;95.48;97291.25;4341879;32;20136;-75
2020/12/28 09:21:42;;;;;;;1.50;1.50;;;;;;;2.61;95.87;97297.69;4369367;32;20448;-77
2020/12/28 09:24:07;;;;;;;1.60;1.60;;;;;;;2.67;95.49;97295.91;4352422;32;20074;-76
2020/12/28 09:26:34;;;;;;;1.50;1.50;;;;;;;2.71;95.18;97294.38;4385391;32;20069;-75
2020/12/28 09:29:00;;;;;;;2.58;2.47;;;;;;;2.52;94.65;97247.16;4397627;32;20630;-75
2020/12/28 09:31:25;;;;;;;1.60;1.60;;;;;;;2.86;94.88;97283.25;4393176;32;20069;-76
2020/12/28 09:33:51;;;;;;;1.50;1.50;;;;;;;2.84;94.35;97259.72;4345789;32;21297;-75
2020/12/28 09:36:20;;;;;;;2.28;2.17;;;;;;;2.99;94.61;97277.63;4375534;32;20085;-75
2020/12/28 09:38:45;;;;;;;1.50;1.50;;;;;;;3.05;94.16;97281.13;4357329;32;20523;-75
2020/12/28 09:41:11;;;;;;;1.60;1.60;;;;;;;3.10;93.85;97278.56;4343223;32;20135;-74
2020/12/28 09:43:36;;;;;;;1.50;1.50;;;;;;;2.93;93.86;97246.91;4348868;32;20066;-74
2020/12/28 09:46:02;;;;;;;1.70;1.70;;;;;;;3.10;93.96;97279.34;4379854;32;20081;-75
2020/12/28 09:48:27;;;;;;;1.55;1.55;;;;;;;3.09;94.02;97276.97;4377204;32;20690;-75
2020/12/28 09:50:53;;;;;;;1.65;1.65;;;;;;;2.95;94.23;97256.22;4375295;32;20854;-76
2020/12/28 09:53:19;;;;;;;1.50;1.50;;;;;;;2.72;94.62;97230.00;4356698;32;20101;-75
2020/12/28 09:55:44;;;;;;;1.90;1.85;;;;;;;2.67;95.04;97233.38;4369647;32;20103;-73
2020/12/28 09:58:09;;;;;;;1.70;1.70;;;;;;;2.60;94.96;97227.47;4370285;32;20595;-75
2020/12/28 10:00:35;;;;;;;1.70;1.70;;;;;;;2.80;95.62;97274.47;4381234;32;20089;-75
2020/12/28 10:03:00;;;;;;;1.70;1.70;;;;;;;2.59;95.55;97257.53;4353912;32;20590;-74
2020/12/28 10:05:26;;;;;;;1.60;1.60;;;;;;;2.24;95.47;97224.28;4377562;32;20982;-75
2020/12/28 10:07:51;;;;;;;1.55;1.55;;;;;;;2.62;95.99;97289.53;4361265;32;20723;-75
2020/12/28 10:10:17;;;;;;;1.62;1.62;;;;;;;2.60;96.16;97288.16;4397676;32;20078;-77
2020/12/28 10:12:43;;;;;;;1.67;1.67;;;;;;;2.59;95.81;97289.22;4344761;32;20066;-75
2020/12/28 10:15:08;;;;;;;1.60;1.60;;;;;;;2.53;95.15;97279.59;4381434;32;20074;-75
2020/12/28 10:17:33;;;;;;;1.60;1.60;;;;;;;2.56;94.81;97285.19;4343468;32;20513;-76
2020/12/28 10:19:59;;;;;;;1.70;1.70;;;;;;;2.56;94.66;97279.13;4348041;32;20090;-75
2020/12/28 10:22:28;;;;;;;1.70;1.70;;;;;;;2.50;94.95;97266.88;4336844;32;20074;-75
2020/12/28 10:24:53;;;;;;;1.90;1.80;;;;;;;2.61;94.39;97281.84;4364947;32;20074;-76
2020/12/28 10:27:19;;;;;;;1.70;1.70;;;;;;;2.56;94.78;97258.03;4350944;32;20185;-76
2020/12/28 10:29:44;;;;;;;1.60;1.60;;;;;;;2.63;93.97;97261.28;4380868;32;20627;-76
2020/12/28 10:32:09;;;;;;;1.80;1.80;;;;;;;2.75;94.09;97272.53;4364191;32;20469;-75
2020/12/28 10:34:35;;;;;;;2.22;2.12;;;;;;;2.61;94.84;97258.88;4343045;32;20058;-75
2020/12/28 10:37:04;;;;;;;1.70;1.70;;;;;;;2.83;93.94;97260.78;4338324;32;20083;-75
2020/12/28 10:39:29;;;;;;;1.77;1.77;;;;;;;3.00;93.64;97268.66;4357851;32;20124;-74
2020/12/28 10:41:55;;;;;;;1.83;1.80;;;;;;;2.74;93.59;97217.38;4354806;32;20085;-74
2020/12/28 10:44:23;;;;;;;1.70;1.70;;;;;;;2.53;93.03;97174.09;4362034;32;20094;-74
2020/12/28 10:46:49;;;;;;;1.70;1.70;;;;;;;3.25;91.99;97273.47;4366101;32;20138;-75
2020/12/28 10:49:15;;;;;;;1.70;1.70;;;;;;;3.33;91.48;97283.62;4374212;32;20369;-75
2020/12/28 10:51:43;;;;;;;1.60;1.60;;;;;;;3.26;91.64;97275.09;4350793;32;20170;-74
2020/12/28 10:54:08;;;;;;;1.70;1.70;;;;;;;3.37;91.33;97263.59;4377993;32;20089;-76
2020/12/28 10:56:34;;;;;;;1.58;1.58;;;;;;;3.43;91.08;97261.00;4349379;32;20149;-73
2020/12/28 10:58:59;;;;;;;1.70;1.70;;;;;;;3.57;90.57;97278.09;4361343;32;20124;-75
2020/12/28 11:01:25;;;;;;;1.80;1.80;;;;;;;3.39;89.80;97258.06;4340952;32;20584;-73
2020/12/28 11:03:51;;;;;;;1.60;1.60;;;;;;;3.62;89.67;97296.63;4375662;32;21007;-74
2020/12/28 11:06:17;;;;;;;1.60;1.60;;;;;;;3.72;89.54;97299.38;4350563;32;20078;-73
2020/12/28 11:08:43;;;;;;;2.00;1.90;;;;;;;3.76;89.39;97297.88;4324741;32;20110;-74
2020/12/28 11:11:09;;;;;;;1.95;1.90;;;;;;;3.69;89.33;97281.41;4336743;32;20080;-73
2020/12/28 11:13:34;;;;;;;1.55;1.55;;;;;;;3.76;88.13;97284.66;4351309;32;20097;-73
2020/12/28 11:15:59;;;;;;;1.80;1.80;;;;;;;3.55;88.04;97246.62;4349782;32;20084;-74
2020/12/28 11:18:25;;;;;;;1.65;1.65;;;;;;;3.71;88.99;97270.59;4349161;32;20070;-75
2020/12/28 11:20:50;;;;;;;1.70;1.70;;;;;;;3.89;88.38;97291.38;4362946;32;20085;-75
2020/12/28 11:23:16;;;;;;;1.80;1.80;;;;;;;3.49;88.27;97228.31;4369378;32;20228;-74
2020/12/28 11:25:41;;;;;;;1.60;1.60;;;;;;;3.77;87.61;97256.34;4345925;32;20096;-74
2020/12/28 11:28:06;;;;;;;1.50;1.50;;;;;;;3.95;87.00;97294.91;4392356;32;20085;-75
2020/12/28 11:30:32;;;;;;;1.80;1.80;;;;;;;3.97;86.86;97269.00;4351768;32;20101;-75
2020/12/28 11:32:57;;;;;;;1.60;1.60;;;;;;;4.21;86.37;97273.94;4390198;32;20073;-74